Weather Display Live

LIVE WEATHER, Rathlin Island , Northern Ireland , UK.
- Weather Data Uploaded via a WMR200 Weather Station -
-
Live Data More Data Mobile Radar AIS Tides Forecast Community Shipwrecks Tides round Rathlin Facebook

This page is updated from recent data collected by a DAVIS VANTAGE PRO weather station Use the Reload or Refresh facility on your browser to retrieve the latest data.



Weather report/warning/Metars

Eglinton / Londonderr, United Kingdom (EGAE) 55-03N 007-09W
Oct 27, 2020 - 06:50 AM EDT / 2020.10.27 1050 UTC
Wind: from the WSW (250 degrees) at 16 MPH (14 KT):0
Visibility: greater than 7 mile(s):0
Sky conditions: mostly cloudy
Temperature: 51 F (11 C)
Dew Point: 48 F (9 C)
Relative Humidity: 87%
Pressure (altimeter): 29.09 in. Hg (0985 hPa)
ob: EGAE 271050Z 25014KT 9999 FEW010 SCT020 BKN043 11/09 Q0985
cycle: 11



Use the RELOAD facility on your browser to retrieve the latest data.

Click here for a daily update of the averages/extremes to date for the month
Created by "Weather Display" software version 10.37S at this start time/date 20:34:04 22/10/2020